createdAt,value
2022-11-12T00:01:10.136Z,99912.28
2022-11-12T00:03:56.245Z,99910.72
2022-11-12T00:06:44.329Z,99903.66
2022-11-12T00:09:29.650Z,99896.88
2022-11-12T00:12:14.558Z,99894.94
2022-11-12T00:14:59.410Z,99898.69
2022-11-12T00:17:44.523Z,99896.19
2022-11-12T00:20:29.299Z,99890.91
2022-11-12T00:23:14.698Z,99895.19
2022-11-12T00:26:00.503Z,99901.75
2022-11-12T00:28:45.591Z,99903.00
2022-11-12T00:31:30.692Z,99893.44
2022-11-12T00:34:15.802Z,99895.69
2022-11-12T00:37:01.170Z,99887.91
2022-11-12T00:39:46.340Z,99886.91
2022-11-12T00:42:31.739Z,99890.72
2022-11-12T00:45:17.027Z,99893.75
2022-11-12T00:48:02.422Z,99892.69
2022-11-12T00:50:47.372Z,99888.91
2022-11-12T00:53:32.430Z,99889.16
2022-11-12T00:56:17.741Z,99891.94
2022-11-12T00:59:02.671Z,99884.44
2022-11-12T01:01:48.321Z,99888.22
2022-11-12T01:04:33.220Z,99887.69
2022-11-12T01:07:18.098Z,99883.16
2022-11-12T01:10:03.188Z,99895.50
2022-11-12T01:12:48.340Z,99893.53
2022-11-12T01:15:33.535Z,99892.25
2022-11-12T01:18:18.878Z,99887.72
2022-11-12T01:21:04.757Z,99880.44
2022-11-12T01:23:50.094Z,99891.75
2022-11-12T01:26:35.102Z,99890.75
2022-11-12T01:29:20.419Z,99891.00
2022-11-12T01:32:05.603Z,99889.25
2022-11-12T01:34:50.973Z,99880.94
2022-11-12T01:37:35.790Z,99878.16
2022-11-12T01:40:20.694Z,99871.13
2022-11-12T01:43:09.560Z,99873.91
2022-11-12T01:45:54.515Z,99877.94
2022-11-12T01:48:47.560Z,99869.84
2022-11-12T01:51:34.042Z,99870.38
2022-11-12T01:54:18.977Z,99864.13
2022-11-12T01:57:03.769Z,99862.84
2022-11-12T01:59:48.991Z,99858.56
2022-11-12T02:02:34.656Z,99858.06
2022-11-12T02:05:19.659Z,99853.56
2022-11-12T02:08:04.712Z,99855.78
2022-11-12T02:10:50.156Z,99859.53
2022-11-12T02:13:58.422Z,99853.97
2022-11-12T02:16:44.247Z,99844.69
2022-11-12T02:19:29.226Z,99845.69
2022-11-12T02:22:14.723Z,99843.22
2022-11-12T02:24:59.733Z,99842.97
2022-11-12T02:27:44.682Z,99840.72
2022-11-12T02:30:33.530Z,99840.47
2022-11-12T02:33:18.407Z,99832.94
2022-11-12T02:36:03.591Z,99832.94
2022-11-12T02:38:48.828Z,99827.41
2022-11-12T02:41:34.067Z,99827.44
2022-11-12T02:44:19.012Z,99831.94
2022-11-12T02:47:03.882Z,99837.72
2022-11-12T02:49:48.715Z,99833.69
2022-11-12T02:52:33.718Z,99835.44
2022-11-12T02:55:18.845Z,99831.94
2022-11-12T02:58:03.781Z,99838.97
2022-11-12T03:00:49.169Z,99839.47
2022-11-12T03:03:34.019Z,99843.75
2022-11-12T03:06:18.907Z,99846.03
2022-11-12T03:09:04.254Z,99844.00
2022-11-12T03:11:49.135Z,99839.50
2022-11-12T03:14:34.445Z,99841.50
2022-11-12T03:17:19.458Z,99836.72
2022-11-12T03:20:05.123Z,99841.00
2022-11-12T03:23:05.445Z,99839.47
2022-11-12T03:25:50.702Z,99839.97
2022-11-12T03:28:35.868Z,99836.44
2022-11-12T03:31:21.083Z,99831.94
2022-11-12T03:34:06.392Z,99828.91
2022-11-12T03:36:51.608Z,99830.44
2022-11-12T03:39:36.701Z,99827.66
2022-11-12T03:42:22.062Z,99826.41
2022-11-12T03:45:07.671Z,99826.91
2022-11-12T03:47:55.620Z,99832.19
2022-11-12T03:50:41.096Z,99832.19
2022-11-12T03:53:26.904Z,99838.47
2022-11-12T03:56:11.985Z,99843.50
2022-11-12T03:58:57.423Z,99846.28
2022-11-12T04:01:42.753Z,99844.00
2022-11-12T04:04:48.057Z,99846.50
2022-11-12T04:07:51.616Z,99846.72
2022-11-12T04:10:36.704Z,99846.72
2022-11-12T04:13:27.648Z,99852.47
2022-11-12T04:16:39.392Z,99850.03
2022-11-12T04:19:43.244Z,99843.47
2022-11-12T04:22:28.566Z,99848.78
2022-11-12T04:25:32.408Z,99847.25
2022-11-12T04:28:17.677Z,99839.22
2022-11-12T04:31:02.836Z,99838.47
2022-11-12T04:33:48.127Z,99846.00
2022-11-12T04:36:33.173Z,99832.94
2022-11-12T04:39:18.858Z,99831.94
2022-11-12T04:42:22.997Z,99827.91
2022-11-12T04:45:09.949Z,99831.44
2022-11-12T04:47:55.177Z,99822.16
2022-11-12T04:50:42.036Z,99835.22
2022-11-12T04:53:28.527Z,99838.22
2022-11-12T04:56:13.821Z,99838.72
2022-11-12T04:58:58.738Z,99838.47
2022-11-12T05:01:44.484Z,99847.78
2022-11-12T05:04:29.471Z,99839.75
2022-11-12T05:07:15.760Z,99846.25
2022-11-12T05:10:00.660Z,99856.28
2022-11-12T05:12:46.048Z,99850.75
2022-11-12T05:15:31.442Z,99852.78
2022-11-12T05:18:16.597Z,99854.06
2022-11-12T05:21:23.718Z,99850.53
2022-11-12T05:24:17.803Z,99844.50
2022-11-12T05:27:19.654Z,99844.00
2022-11-12T05:30:05.061Z,99843.50
2022-11-12T05:32:50.435Z,99839.22
2022-11-12T05:35:35.359Z,99843.75
2022-11-12T05:38:20.329Z,99846.50
2022-11-12T05:41:05.606Z,99837.69
2022-11-12T05:43:50.886Z,99834.16
2022-11-12T05:46:36.347Z,99835.91
2022-11-12T05:49:21.438Z,99843.47
2022-11-12T05:52:07.045Z,99839.19
2022-11-12T05:54:52.379Z,99845.75
2022-11-12T05:57:37.573Z,99853.03
2022-11-12T06:00:22.843Z,99862.03
2022-11-12T06:03:09.137Z,99857.47
2022-11-12T06:05:54.263Z,99863.50
2022-11-12T06:08:39.641Z,99866.78
2022-11-12T06:11:25.264Z,99866.31
2022-11-12T06:14:10.454Z,99863.06
2022-11-12T06:16:55.789Z,99876.63
2022-11-12T06:19:41.559Z,99870.06
2022-11-12T06:22:29.175Z,99868.34
2022-11-12T06:25:18.066Z,99871.34
2022-11-12T06:28:03.399Z,99873.31
2022-11-12T06:30:51.192Z,99872.59
2022-11-12T06:33:36.431Z,99871.78
2022-11-12T06:36:21.507Z,99877.34
2022-11-12T06:39:06.785Z,99881.34
2022-11-12T06:41:52.292Z,99881.38
2022-11-12T06:44:37.587Z,99871.34
2022-11-12T06:47:22.842Z,99872.09
2022-11-12T06:50:08.394Z,99873.38
2022-11-12T06:52:58.588Z,99871.59
2022-11-12T06:55:44.017Z,99868.34
2022-11-12T06:58:29.714Z,99862.31
2022-11-12T07:01:16.841Z,99862.09
2022-11-12T07:04:02.597Z,99862.34
2022-11-12T07:06:47.948Z,99868.38
2022-11-12T07:09:33.215Z,99871.41
2022-11-12T07:12:18.252Z,99863.59
2022-11-12T07:15:03.908Z,99865.34
2022-11-12T07:17:50.263Z,99860.59
2022-11-12T07:20:40.264Z,99864.84
2022-11-12T07:23:25.909Z,99861.34
2022-11-12T07:26:15.684Z,99871.66
2022-11-12T07:29:01.242Z,99867.63
2022-11-12T07:31:46.466Z,99877.16
2022-11-12T07:34:31.616Z,99879.19
2022-11-12T07:37:16.899Z,99866.84
2022-11-12T07:40:03.704Z,99869.84
2022-11-12T07:42:48.797Z,99861.47
2022-11-12T07:45:33.885Z,99871.50
2022-11-12T07:48:19.165Z,99864.38
2022-11-12T07:51:07.203Z,99857.34
2022-11-12T07:53:59.506Z,99860.59
2022-11-12T07:56:44.691Z,99862.50
2022-11-12T07:59:30.132Z,99862.88
2022-11-12T08:02:15.401Z,99860.19
2022-11-12T08:05:00.479Z,99868.97
2022-11-12T08:07:45.640Z,99861.66
2022-11-12T08:10:30.682Z,99866.97
2022-11-12T08:13:15.685Z,99868.59
2022-11-12T08:16:00.978Z,99867.56
2022-11-12T08:18:46.467Z,99861.81
2022-11-12T08:21:31.698Z,99868.28
2022-11-12T08:24:17.024Z,99874.81
2022-11-12T08:27:02.631Z,99874.25
2022-11-12T08:29:48.111Z,99872.97
2022-11-12T08:32:33.418Z,99873.66
2022-11-12T08:35:18.602Z,99872.53
2022-11-12T08:38:10.851Z,99872.03
2022-11-12T08:40:55.887Z,99862.72
2022-11-12T08:43:42.510Z,99864.69
2022-11-12T08:46:28.121Z,99860.91
2022-11-12T08:49:13.473Z,99865.69
2022-11-12T08:51:59.954Z,99858.59
2022-11-12T08:54:45.310Z,99858.38
2022-11-12T08:57:30.579Z,99856.06
2022-11-12T09:00:16.286Z,99865.06
2022-11-12T09:03:05.700Z,99861.75
2022-11-12T09:05:51.742Z,99859.72
2022-11-12T09:08:44.613Z,99858.44
2022-11-12T09:11:30.072Z,99865.63
2022-11-12T09:14:15.407Z,99860.38
2022-11-12T09:17:00.951Z,99860.38
2022-11-12T09:19:46.117Z,99857.50
2022-11-12T09:22:33.400Z,99854.59
2022-11-12T09:25:23.842Z,99846.19
2022-11-12T09:28:19.302Z,99842.06
2022-11-12T09:31:07.059Z,99841.22
2022-11-12T09:33:52.395Z,99837.41
2022-11-12T09:36:39.906Z,99836.88
2022-11-12T09:39:27.866Z,99840.69
2022-11-12T09:42:19.572Z,99834.72
2022-11-12T09:45:18.557Z,99841.00
2022-11-12T09:48:07.566Z,99838.69
2022-11-12T09:51:14.913Z,99836.72
2022-11-12T09:54:15.584Z,99830.28
2022-11-12T09:57:01.253Z,99837.13
2022-11-12T09:59:46.416Z,99834.59
2022-11-12T10:03:09.798Z,99833.22
2022-11-12T10:06:19.527Z,99832.78
2022-11-12T10:09:20.529Z,99833.94
2022-11-12T10:12:32.212Z,99830.41
2022-11-12T10:16:13.290Z,99831.16
2022-11-12T10:19:41.687Z,99837.56
2022-11-12T10:22:41.323Z,99837.13
2022-11-12T10:25:30.046Z,99825.53
2022-11-12T10:28:38.924Z,99826.47
2022-11-12T10:31:24.242Z,99821.72
2022-11-12T10:34:27.322Z,99818.50
2022-11-12T10:37:24.793Z,99814.22
2022-11-12T10:40:24.975Z,99822.50
2022-11-12T10:43:15.972Z,99815.16
2022-11-12T10:46:20.816Z,99812.09
2022-11-12T10:49:16.297Z,99810.44
2022-11-12T10:52:01.312Z,99816.31
2022-11-12T10:54:50.926Z,99811.03
2022-11-12T10:57:39.192Z,99809.25
2022-11-12T11:00:24.750Z,99806.38
2022-11-12T11:03:20.704Z,99802.56
2022-11-12T11:06:07.963Z,99799.69
2022-11-12T11:08:54.281Z,99804.38
2022-11-12T11:11:53.507Z,99802.03
2022-11-12T11:14:40.091Z,99799.13
2022-11-12T11:17:27.391Z,99790.69
2022-11-12T11:20:39.547Z,99785.09
2022-11-12T11:23:55.876Z,99787.75
2022-11-12T11:27:04.190Z,99793.72
2022-11-12T11:30:05.927Z,99790.72
2022-11-12T11:33:29.964Z,99784.25
2022-11-12T11:36:26.234Z,99786.97
2022-11-12T11:39:20.345Z,99775.22
2022-11-12T11:42:38.993Z,99775.84
2022-11-12T11:45:58.211Z,99780.47
2022-11-12T11:48:47.746Z,99766.53
2022-11-12T11:51:55.201Z,99768.06
2022-11-12T11:55:18.342Z,99761.66
2022-11-12T11:58:12.944Z,99755.75
2022-11-12T12:01:04.417Z,99759.72
2022-11-12T12:04:00.610Z,99759.50
2022-11-12T12:06:59.492Z,99751.34
2022-11-12T12:10:09.228Z,99759.56
2022-11-12T12:13:12.795Z,99750.16
2022-11-12T12:16:20.068Z,99746.00
2022-11-12T12:19:18.909Z,99748.91
2022-11-12T12:22:10.952Z,99746.91
2022-11-12T12:24:57.785Z,99740.59
2022-11-12T12:27:49.506Z,99738.78
2022-11-12T12:30:36.840Z,99739.53
2022-11-12T12:33:33.755Z,99741.13
2022-11-12T12:36:38.964Z,99739.38
2022-11-12T12:39:52.777Z,99736.41
2022-11-12T12:42:44.557Z,99733.09
2022-11-12T12:45:41.830Z,99728.91
2022-11-12T12:48:35.204Z,99722.94
2022-11-12T12:51:20.613Z,99718.72
2022-11-12T12:54:34.334Z,99715.50
2022-11-12T12:57:38.737Z,99707.00
2022-11-12T13:00:29.747Z,99708.44
2022-11-12T13:03:47.938Z,99694.66
2022-11-12T13:06:51.589Z,99699.34
2022-11-12T13:09:37.071Z,99700.28
2022-11-12T13:13:03.334Z,99699.50
2022-11-12T13:15:50.300Z,99689.03
2022-11-12T13:18:38.533Z,99693.91
2022-11-12T13:21:28.510Z,99690.63
2022-11-12T13:24:14.056Z,99682.44
2022-11-12T13:27:00.150Z,99683.94
2022-11-12T13:29:46.954Z,99686.34
2022-11-12T13:32:46.192Z,99683.53
2022-11-12T13:35:40.657Z,99684.31
2022-11-12T13:38:26.553Z,99687.31
2022-11-12T13:41:17.777Z,99677.44
2022-11-12T13:44:06.610Z,99689.72
2022-11-12T13:46:52.688Z,99683.22
2022-11-12T13:49:38.039Z,99682.81
2022-11-12T13:52:23.995Z,99682.84
2022-11-12T13:55:20.750Z,99672.63
2022-11-12T13:58:16.156Z,99671.31
2022-11-12T14:01:06.042Z,99675.06
2022-11-12T14:03:52.402Z,99662.72
2022-11-12T14:06:40.060Z,99669.06
2022-11-12T14:09:25.436Z,99668.31
2022-11-12T14:12:22.853Z,99667.94
2022-11-12T14:15:45.105Z,99677.81
2022-11-12T14:18:45.093Z,99677.66
2022-11-12T14:21:30.276Z,99667.94
2022-11-12T14:24:15.480Z,99672.22
2022-11-12T14:27:00.775Z,99659.72
2022-11-12T14:29:46.194Z,99660.84
2022-11-12T14:32:38.491Z,99654.50
2022-11-12T14:35:33.771Z,99655.56
2022-11-12T14:38:32.840Z,99646.63
2022-11-12T14:41:22.395Z,99649.03
2022-11-12T14:44:13.198Z,99646.63
2022-11-12T14:46:59.334Z,99643.03
2022-11-12T14:49:45.915Z,99645.28
2022-11-12T14:52:37.485Z,99637.63
2022-11-12T14:55:34.049Z,99642.38
2022-11-12T14:58:20.615Z,99641.28
2022-11-12T15:01:45.013Z,99639.00
2022-11-12T15:04:27.831Z,99647.13
2022-11-12T15:07:54.386Z,99641.66
2022-11-12T15:10:41.678Z,99640.78
2022-11-12T15:13:27.635Z,99635.19
2022-11-12T15:16:32.881Z,99636.47
2022-11-12T15:19:23.865Z,99631.25
2022-11-12T15:22:19.393Z,99625.06
2022-11-12T15:25:30.970Z,99622.25
2022-11-12T15:28:24.287Z,99615.16
2022-11-12T15:31:19.307Z,99621.66
2022-11-12T15:34:26.554Z,99617.66
2022-11-12T15:37:13.195Z,99614.59
2022-11-12T15:39:59.907Z,99613.78
2022-11-12T15:42:47.288Z,99606.97
2022-11-12T15:45:33.482Z,99599.66
2022-11-12T15:48:19.058Z,99601.41
2022-11-12T15:51:04.361Z,99604.59
2022-11-12T15:53:49.510Z,99594.44
2022-11-12T15:56:35.905Z,99598.13
2022-11-12T15:59:21.429Z,99599.34
2022-11-12T16:02:11.557Z,99598.63
2022-11-12T16:04:58.148Z,99604.50
2022-11-12T16:07:43.362Z,99596.94
2022-11-12T16:10:28.635Z,99595.34
2022-11-12T16:13:40.293Z,99596.19
2022-11-12T16:16:25.897Z,99610.31
2022-11-12T16:19:13.821Z,99598.97
2022-11-12T16:21:58.920Z,99602.91
2022-11-12T16:24:45.002Z,99608.25
2022-11-12T16:27:30.360Z,99604.84
2022-11-12T16:30:18.372Z,99597.22
2022-11-12T16:33:03.638Z,99584.19
2022-11-12T16:35:49.002Z,99589.66
2022-11-12T16:38:33.957Z,99582.69
2022-11-12T16:41:19.240Z,99586.94
2022-11-12T16:44:04.801Z,99590.56
2022-11-12T16:46:50.760Z,99582.53
2022-11-12T16:49:38.918Z,99583.97
2022-11-12T16:52:25.966Z,99582.22
2022-11-12T16:55:11.221Z,99579.88
2022-11-12T16:57:56.258Z,99585.59
2022-11-12T17:00:46.116Z,99585.47
2022-11-12T17:03:31.485Z,99585.59
2022-11-12T17:06:16.968Z,99580.13
2022-11-12T17:09:03.947Z,99583.47
2022-11-12T17:11:49.282Z,99578.97
2022-11-12T17:14:35.610Z,99581.09
2022-11-12T17:17:20.702Z,99570.81
2022-11-12T17:20:06.549Z,99570.91
2022-11-12T17:22:51.954Z,99567.47
2022-11-12T17:25:40.198Z,99570.44
2022-11-12T17:28:25.189Z,99570.97
2022-11-12T17:31:21.503Z,99573.91
2022-11-12T17:34:07.141Z,99573.97
2022-11-12T17:36:52.167Z,99573.06
2022-11-12T17:39:37.454Z,99581.38
2022-11-12T17:42:22.788Z,99570.00
2022-11-12T17:45:08.362Z,99578.69
2022-11-12T17:47:53.550Z,99569.09
2022-11-12T17:50:38.984Z,99562.97
2022-11-12T17:53:24.693Z,99562.06
2022-11-12T17:56:12.689Z,99560.56
2022-11-12T17:58:57.832Z,99556.91
2022-11-12T18:01:43.061Z,99561.53
2022-11-12T18:04:31.035Z,99551.63
2022-11-12T18:07:16.638Z,99549.84
2022-11-12T18:10:02.214Z,99550.50
2022-11-12T18:12:47.289Z,99557.09
2022-11-12T18:15:32.525Z,99555.78
2022-11-12T18:18:18.630Z,99554.56
2022-11-12T18:21:04.532Z,99555.19
2022-11-12T18:23:50.287Z,99559.81
2022-11-12T18:26:35.236Z,99554.56
2022-11-12T18:29:20.980Z,99559.47
2022-11-12T18:32:06.123Z,99549.84
2022-11-12T18:34:51.912Z,99551.47
2022-11-12T18:37:37.652Z,99542.63
2022-11-12T18:40:23.447Z,99544.47
2022-11-12T18:43:09.189Z,99550.34
2022-11-12T18:45:59.060Z,99549.16
2022-11-12T18:48:44.139Z,99541.53
2022-11-12T18:51:29.488Z,99535.66
2022-11-12T18:54:16.189Z,99541.81
2022-11-12T18:57:01.058Z,99535.22
2022-11-12T18:59:47.794Z,99539.75
2022-11-12T19:02:33.186Z,99530.94
2022-11-12T19:05:20.738Z,99530.06
2022-11-12T19:08:06.050Z,99522.41
2022-11-12T19:11:00.152Z,99518.91
2022-11-12T19:13:45.463Z,99529.31
2022-11-12T19:16:30.859Z,99520.28
2022-11-12T19:19:16.316Z,99523.78
2022-11-12T19:22:01.444Z,99521.81
2022-11-12T19:24:46.839Z,99518.59
2022-11-12T19:27:32.308Z,99517.63
2022-11-12T19:30:17.654Z,99516.22
2022-11-12T19:33:03.055Z,99517.41
2022-11-12T19:35:48.340Z,99523.38
2022-11-12T19:38:33.616Z,99519.63
2022-11-12T19:41:20.061Z,99522.59
2022-11-12T19:44:05.588Z,99519.16
2022-11-12T19:46:50.956Z,99507.13
2022-11-12T19:49:36.278Z,99510.06
2022-11-12T19:52:21.963Z,99517.34
2022-11-12T19:55:07.535Z,99510.75
2022-11-12T19:57:52.660Z,99516.75
2022-11-12T20:00:37.998Z,99515.06
2022-11-12T20:03:25.069Z,99512.22
2022-11-12T20:06:13.366Z,99503.94
2022-11-12T20:08:59.907Z,99511.06
2022-11-12T20:11:45.056Z,99515.25
2022-11-12T20:14:30.315Z,99509.03
2022-11-12T20:17:15.618Z,99509.03
2022-11-12T20:20:01.322Z,99506.81
2022-11-12T20:22:46.591Z,99494.22
2022-11-12T20:25:32.867Z,99494.56
2022-11-12T20:28:18.185Z,99497.38
2022-11-12T20:31:20.362Z,99489.84
2022-11-12T20:34:05.523Z,99484.81
2022-11-12T20:36:50.436Z,99489.13
2022-11-12T20:39:35.931Z,99490.69
2022-11-12T20:42:21.193Z,99493.91
2022-11-12T20:45:07.007Z,99489.63
2022-11-12T20:47:52.161Z,99488.66
2022-11-12T20:50:37.427Z,99487.06
2022-11-12T20:53:23.398Z,99487.47
2022-11-12T20:56:14.074Z,99484.97
2022-11-12T20:58:59.785Z,99484.72
2022-11-12T21:01:44.943Z,99482.53
2022-11-12T21:04:30.066Z,99486.50
2022-11-12T21:07:15.381Z,99475.50
2022-11-12T21:10:00.722Z,99475.78
2022-11-12T21:12:45.662Z,99470.47
2022-11-12T21:15:31.423Z,99479.84
2022-11-12T21:18:16.442Z,99464.84
2022-11-12T21:21:04.016Z,99462.44
2022-11-12T21:23:50.265Z,99458.84
2022-11-12T21:26:35.508Z,99461.53
2022-11-12T21:29:20.877Z,99454.81
2022-11-12T21:32:06.392Z,99453.31
2022-11-12T21:34:51.614Z,99441.59
2022-11-12T21:37:36.628Z,99447.47
2022-11-12T21:40:22.038Z,99450.50
2022-11-12T21:43:07.654Z,99445.25
2022-11-12T21:45:52.625Z,99438.97
2022-11-12T21:48:37.719Z,99447.50
2022-11-12T21:51:24.961Z,99447.78
2022-11-12T21:54:10.583Z,99449.78
2022-11-12T21:56:56.057Z,99452.22
2022-11-12T21:59:42.921Z,99449.56
2022-11-12T22:02:28.335Z,99447.94
2022-11-12T22:05:15.359Z,99440.88
2022-11-12T22:08:00.606Z,99435.25
2022-11-12T22:10:45.986Z,99435.84
2022-11-12T22:13:31.559Z,99437.34
2022-11-12T22:16:24.625Z,99441.09
2022-11-12T22:19:11.237Z,99426.78
2022-11-12T22:21:56.356Z,99432.06
2022-11-12T22:24:41.719Z,99427.53
2022-11-12T22:27:29.201Z,99421.28
2022-11-12T22:30:14.724Z,99412.25
2022-11-12T22:33:00.135Z,99413.00
2022-11-12T22:35:45.530Z,99402.63
2022-11-12T22:38:35.758Z,99405.19
2022-11-12T22:41:28.662Z,99400.25
2022-11-12T22:44:13.680Z,99407.06
2022-11-12T22:46:58.790Z,99391.69
2022-11-12T22:49:43.730Z,99389.47
2022-11-12T22:52:29.389Z,99394.56
2022-11-12T22:55:14.852Z,99390.31
2022-11-12T22:58:00.377Z,99392.28
2022-11-12T23:00:45.615Z,99391.72
2022-11-12T23:03:32.107Z,99387.22
2022-11-12T23:06:17.922Z,99389.16
2022-11-12T23:09:03.812Z,99387.88
2022-11-12T23:11:48.833Z,99388.72
2022-11-12T23:14:34.423Z,99379.13
2022-11-12T23:17:19.616Z,99377.28
2022-11-12T23:20:05.346Z,99374.66
2022-11-12T23:22:51.120Z,99379.63
2022-11-12T23:25:36.515Z,99370.78
2022-11-12T23:28:21.520Z,99368.19
2022-11-12T23:31:15.670Z,99370.19
2022-11-12T23:34:01.115Z,99365.19
2022-11-12T23:36:46.139Z,99362.88
2022-11-12T23:39:31.698Z,99356.47
2022-11-12T23:42:16.887Z,99356.78
2022-11-12T23:45:02.278Z,99361.72
2022-11-12T23:47:47.561Z,99362.75
2022-11-12T23:50:32.858Z,99357.78
2022-11-12T23:53:18.248Z,99362.31
2022-11-12T23:56:04.838Z,99354.34
2022-11-12T23:58:53.763Z,99352.69
